sensor_id;sensor_type;location;lat;lon;timestamp;pressure;altitude;pressure_sealevel;temperature;humidity
13011;BME280;6786;57.632;11.962;2022-11-20T00:01:06;100964.50;;;19.88;39.21
13011;BME280;6786;57.632;11.962;2022-11-20T00:03:37;100966.22;;;19.89;39.40
13011;BME280;6786;57.632;11.962;2022-11-20T00:06:06;100961.94;;;19.87;39.41
13011;BME280;6786;57.632;11.962;2022-11-20T00:08:35;100959.13;;;19.88;39.38
13011;BME280;6786;57.632;11.962;2022-11-20T00:11:04;100961.94;;;19.87;39.32
13011;BME280;6786;57.632;11.962;2022-11-20T00:13:39;100963.69;;;19.88;39.37
13011;BME280;6786;57.632;11.962;2022-11-20T00:16:11;100956.59;;;19.87;39.43
13011;BME280;6786;57.632;11.962;2022-11-20T00:18:39;100966.22;;;19.89;39.30
13011;BME280;6786;57.632;11.962;2022-11-20T00:21:11;100966.22;;;19.89;39.42
13011;BME280;6786;57.632;11.962;2022-11-20T00:23:40;100969.88;;;19.88;39.38
13011;BME280;6786;57.632;11.962;2022-11-20T00:26:10;100968.91;;;19.89;39.38
13011;BME280;6786;57.632;11.962;2022-11-20T00:28:40;100963.53;;;19.89;39.28
13011;BME280;6786;57.632;11.962;2022-11-20T00:31:10;100960.84;;;19.89;38.97
13011;BME280;6786;57.632;11.962;2022-11-20T00:33:38;100960.84;;;19.89;39.29
13011;BME280;6786;57.632;11.962;2022-11-20T00:36:08;100960.84;;;19.89;39.38
13011;BME280;6786;57.632;11.962;2022-11-20T00:38:36;100931.97;;;19.72;39.36
13011;BME280;6786;57.632;11.962;2022-11-20T00:41:08;100962.53;;;19.90;39.18
13011;BME280;6786;57.632;11.962;2022-11-20T00:43:37;100955.75;;;19.86;39.19
13011;BME280;6786;57.632;11.962;2022-11-20T00:46:09;100967.91;;;19.90;39.25
13011;BME280;6786;57.632;11.962;2022-11-20T00:48:37;100960.84;;;19.89;39.08
13011;BME280;6786;57.632;11.962;2022-11-20T00:51:05;100957.19;;;19.90;39.23
13011;BME280;6786;57.632;11.962;2022-11-20T00:53:34;100953.78;;;19.88;39.10
13011;BME280;6786;57.632;11.962;2022-11-20T00:56:04;100962.53;;;19.90;39.21
13011;BME280;6786;57.632;11.962;2022-11-20T00:58:33;100961.69;;;19.90;39.23
13011;BME280;6786;57.632;11.962;2022-11-20T01:01:03;100947.25;;;19.81;39.30
13011;BME280;6786;57.632;11.962;2022-11-20T01:03:33;100962.53;;;19.90;39.26
13011;BME280;6786;57.632;11.962;2022-11-20T01:06:03;100965.03;;;19.82;39.15
13011;BME280;6786;57.632;11.962;2022-11-20T01:08:32;100971.59;;;19.89;39.17
13011;BME280;6786;57.632;11.962;2022-11-20T01:11:01;100977.22;;;19.86;39.14
13011;BME280;6786;57.632;11.962;2022-11-20T01:13:30;100977.91;;;19.88;39.13
13011;BME280;6786;57.632;11.962;2022-11-20T01:16:09;100984.00;;;19.90;39.35
13011;BME280;6786;57.632;11.962;2022-11-20T01:18:40;100977.78;;;19.90;39.39
13011;BME280;6786;57.632;11.962;2022-11-20T01:21:10;100980.59;;;19.88;39.16
13011;BME280;6786;57.632;11.962;2022-11-20T01:23:40;100977.91;;;19.88;39.14
13011;BME280;6786;57.632;11.962;2022-11-20T01:26:10;100949.47;;;19.67;39.12
13011;BME280;6786;57.632;11.962;2022-11-20T01:28:39;100987.69;;;19.89;39.25
13011;BME280;6786;57.632;11.962;2022-11-20T01:31:12;100980.88;;;19.85;39.19
13011;BME280;6786;57.632;11.962;2022-11-20T01:33:42;100984.53;;;19.84;39.13
13011;BME280;6786;57.632;11.962;2022-11-20T01:36:11;100991.31;;;19.88;39.20
13011;BME280;6786;57.632;11.962;2022-11-20T01:38:39;100992.19;;;19.89;39.16
13011;BME280;6786;57.632;11.962;2022-11-20T01:41:08;100977.91;;;19.88;39.25
13011;BME280;6786;57.632;11.962;2022-11-20T01:43:37;100977.22;;;19.86;39.23
13011;BME280;6786;57.632;11.962;2022-11-20T01:46:15;100977.91;;;19.88;38.83
13011;BME280;6786;57.632;11.962;2022-11-20T01:48:50;100972.69;;;19.87;39.08
13011;BME280;6786;57.632;11.962;2022-11-20T01:51:25;100968.19;;;19.87;39.21
13011;BME280;6786;57.632;11.962;2022-11-20T01:53:58;100968.19;;;19.87;39.04
13011;BME280;6786;57.632;11.962;2022-11-20T01:56:28;100962.81;;;19.87;39.16
13011;BME280;6786;57.632;11.962;2022-11-20T01:59:01;100960.25;;;19.86;39.22
13011;BME280;6786;57.632;11.962;2022-11-20T02:01:29;100961.13;;;19.86;39.13
13011;BME280;6786;57.632;11.962;2022-11-20T02:03:59;100957.44;;;19.87;39.25
13011;BME280;6786;57.632;11.962;2022-11-20T02:06:31;100947.84;;;19.85;39.21
13011;BME280;6786;57.632;11.962;2022-11-20T02:09:00;100952.09;;;19.87;39.13
13011;BME280;6786;57.632;11.962;2022-11-20T02:11:29;100950.41;;;19.86;39.24
13011;BME280;6786;57.632;11.962;2022-11-20T02:13:58;100951.34;;;19.85;39.15
13011;BME280;6786;57.632;11.962;2022-11-20T02:16:27;100934.84;;;19.80;39.07
13011;BME280;6786;57.632;11.962;2022-11-20T02:18:59;100922.09;;;19.73;39.13
13011;BME280;6786;57.632;11.962;2022-11-20T02:21:33;100938.66;;;19.87;39.13
13011;BME280;6786;57.632;11.962;2022-11-20T02:24:09;100941.34;;;19.87;38.98
13011;BME280;6786;57.632;11.962;2022-11-20T02:26:45;100944.03;;;19.87;39.19
13011;BME280;6786;57.632;11.962;2022-11-20T02:29:16;100937.81;;;19.87;39.13
13011;BME280;6786;57.632;11.962;2022-11-20T02:31:47;100915.94;;;19.82;39.13
13011;BME280;6786;57.632;11.962;2022-11-20T02:34:15;100930.63;;;19.87;39.14
13011;BME280;6786;57.632;11.962;2022-11-20T02:36:44;100925.41;;;19.86;39.08
13011;BME280;6786;57.632;11.962;2022-11-20T02:39:15;100931.75;;;19.85;39.11
13011;BME280;6786;57.632;11.962;2022-11-20T02:41:44;100928.06;;;19.86;39.05
13011;BME280;6786;57.632;11.962;2022-11-20T02:44:12;100921.84;;;19.85;39.13
13011;BME280;6786;57.632;11.962;2022-11-20T02:46:40;100927.22;;;19.85;39.21
13011;BME280;6786;57.632;11.962;2022-11-20T02:49:08;100923.56;;;19.86;39.15
13011;BME280;6786;57.632;11.962;2022-11-20T02:51:37;100923.56;;;19.86;39.20
13011;BME280;6786;57.632;11.962;2022-11-20T02:54:05;100928.06;;;19.86;39.02
13011;BME280;6786;57.632;11.962;2022-11-20T02:56:34;100895.84;;;19.76;39.21
13011;BME280;6786;57.632;11.962;2022-11-20T02:59:05;100918.22;;;19.86;39.05
13011;BME280;6786;57.632;11.962;2022-11-20T03:01:33;100914.81;;;19.84;39.05
13011;BME280;6786;57.632;11.962;2022-11-20T03:04:01;100918.22;;;19.86;39.21
13011;BME280;6786;57.632;11.962;2022-11-20T03:06:29;100912.84;;;19.86;39.01
13011;BME280;6786;57.632;11.962;2022-11-20T03:08:57;100919.03;;;19.87;39.15
13011;BME280;6786;57.632;11.962;2022-11-20T03:11:25;100928.66;;;19.89;39.07
13011;BME280;6786;57.632;11.962;2022-11-20T03:13:54;100912.84;;;19.86;39.12
13011;BME280;6786;57.632;11.962;2022-11-20T03:16:22;100909.16;;;19.87;38.93
13011;BME280;6786;57.632;11.962;2022-11-20T03:18:52;100914.53;;;19.87;38.79
13011;BME280;6786;57.632;11.962;2022-11-20T03:21:20;100904.06;;;19.84;39.03
13011;BME280;6786;57.632;11.962;2022-11-20T03:23:48;100902.13;;;19.86;39.19
13011;BME280;6786;57.632;11.962;2022-11-20T03:26:18;100857.97;;;19.60;39.00
13011;BME280;6786;57.632;11.962;2022-11-20T03:28:48;100897.03;;;19.83;39.05
13011;BME280;6786;57.632;11.962;2022-11-20T03:31:18;100894.75;;;19.88;38.94
13011;BME280;6786;57.632;11.962;2022-11-20T03:33:47;100902.13;;;19.86;39.05
13011;BME280;6786;57.632;11.962;2022-11-20T03:36:16;100896.75;;;19.86;39.17
13011;BME280;6786;57.632;11.962;2022-11-20T03:38:45;100900.41;;;19.85;39.00
13011;BME280;6786;57.632;11.962;2022-11-20T03:41:14;100911.13;;;19.85;38.91
13011;BME280;6786;57.632;11.962;2022-11-20T03:43:47;100905.91;;;19.84;39.00
13011;BME280;6786;57.632;11.962;2022-11-20T03:46:15;100913.81;;;19.85;39.13
13011;BME280;6786;57.632;11.962;2022-11-20T03:48:44;100913.81;;;19.85;39.03
13011;BME280;6786;57.632;11.962;2022-11-20T03:51:19;100907.47;;;19.86;38.91
13011;BME280;6786;57.632;11.962;2022-11-20T03:53:48;100899.56;;;19.85;39.04
13011;BME280;6786;57.632;11.962;2022-11-20T03:56:18;100906.75;;;19.84;38.85
13011;BME280;6786;57.632;11.962;2022-11-20T03:58:47;100892.34;;;19.85;39.04
13011;BME280;6786;57.632;11.962;2022-11-20T04:01:17;100892.34;;;19.85;38.97
13011;BME280;6786;57.632;11.962;2022-11-20T04:03:47;100886.72;;;19.88;38.98
13011;BME280;6786;57.632;11.962;2022-11-20T04:06:17;100878.94;;;19.85;38.91
13011;BME280;6786;57.632;11.962;2022-11-20T04:08:45;100874.44;;;19.86;38.96
13011;BME280;6786;57.632;11.962;2022-11-20T04:11:20;100870.19;;;19.83;38.96
13011;BME280;6786;57.632;11.962;2022-11-20T04:13:50;100876.97;;;19.87;38.89
13011;BME280;6786;57.632;11.962;2022-11-20T04:16:19;100881.47;;;19.87;39.01
13011;BME280;6786;57.632;11.962;2022-11-20T04:18:51;100875.28;;;19.86;39.08
13011;BME280;6786;57.632;11.962;2022-11-20T04:21:19;100869.94;;;19.86;38.88
13011;BME280;6786;57.632;11.962;2022-11-20T04:23:47;100876.97;;;19.87;38.89
13011;BME280;6786;57.632;11.962;2022-11-20T04:26:15;100876.13;;;19.87;38.84
13011;BME280;6786;57.632;11.962;2022-11-20T04:28:43;100863.84;;;19.84;38.88
13011;BME280;6786;57.632;11.962;2022-11-20T04:31:13;100866.25;;;19.87;38.94
13011;BME280;6786;57.632;11.962;2022-11-20T04:33:42;100856.66;;;19.85;38.97
13011;BME280;6786;57.632;11.962;2022-11-20T04:36:13;100855.53;;;19.87;38.84
13011;BME280;6786;57.632;11.962;2022-11-20T04:38:41;100853.69;;;19.88;38.92
13011;BME280;6786;57.632;11.962;2022-11-20T04:41:14;100855.53;;;19.87;39.02
13011;BME280;6786;57.632;11.962;2022-11-20T04:43:46;100848.47;;;19.86;38.83
13011;BME280;6786;57.632;11.962;2022-11-20T04:46:14;100816.78;;;19.71;39.00
13011;BME280;6786;57.632;11.962;2022-11-20T04:48:42;100846.47;;;19.88;39.02
13011;BME280;6786;57.632;11.962;2022-11-20T04:51:12;100839.44;;;19.87;38.89
13011;BME280;6786;57.632;11.962;2022-11-20T04:53:40;100844.78;;;19.87;38.86
13011;BME280;6786;57.632;11.962;2022-11-20T04:56:10;100844.78;;;19.87;38.87
13011;BME280;6786;57.632;11.962;2022-11-20T04:58:38;100830.38;;;19.88;38.75
13011;BME280;6786;57.632;11.962;2022-11-20T05:01:09;100809.34;;;19.74;38.79
13011;BME280;6786;57.632;11.962;2022-11-20T05:03:37;100834.91;;;19.88;38.78
13011;BME280;6786;57.632;11.962;2022-11-20T05:06:09;100839.44;;;19.87;38.75
13011;BME280;6786;57.632;11.962;2022-11-20T05:08:39;100846.47;;;19.88;38.85
13011;BME280;6786;57.632;11.962;2022-11-20T05:11:08;100831.38;;;19.87;38.74
13011;BME280;6786;57.632;11.962;2022-11-20T05:13:36;100803.78;;;19.66;38.85
13011;BME280;6786;57.632;11.962;2022-11-20T05:16:06;100825.28;;;19.85;38.82
13011;BME280;6786;57.632;11.962;2022-11-20T05:18:35;100821.66;;;19.86;38.84
13011;BME280;6786;57.632;11.962;2022-11-20T05:21:04;100823.34;;;19.87;38.82
13011;BME280;6786;57.632;11.962;2022-11-20T05:23:33;100827.00;;;19.86;38.85
13011;BME280;6786;57.632;11.962;2022-11-20T05:26:03;100805.81;;;19.83;38.79
13011;BME280;6786;57.632;11.962;2022-11-20T05:28:32;100807.25;;;19.87;38.77
13011;BME280;6786;57.632;11.962;2022-11-20T05:31:04;100812.59;;;19.87;38.82
13011;BME280;6786;57.632;11.962;2022-11-20T05:33:33;100801.88;;;19.87;38.67
13011;BME280;6786;57.632;11.962;2022-11-20T05:36:01;100801.88;;;19.87;38.81
13011;BME280;6786;57.632;11.962;2022-11-20T05:38:30;100801.88;;;19.87;38.80
13011;BME280;6786;57.632;11.962;2022-11-20T05:41:04;100796.50;;;19.87;38.61
13011;BME280;6786;57.632;11.962;2022-11-20T05:43:33;100796.50;;;19.87;38.73
13011;BME280;6786;57.632;11.962;2022-11-20T05:46:01;100791.16;;;19.87;38.74
13011;BME280;6786;57.632;11.962;2022-11-20T05:48:30;100787.47;;;19.88;38.73
13011;BME280;6786;57.632;11.962;2022-11-20T05:50:58;100792.84;;;19.88;38.71
13011;BME280;6786;57.632;11.962;2022-11-20T05:53:27;100783.97;;;19.88;38.84
13011;BME280;6786;57.632;11.962;2022-11-20T05:55:58;100780.41;;;19.87;38.69
13011;BME280;6786;57.632;11.962;2022-11-20T05:58:28;100785.78;;;19.87;38.76
13011;BME280;6786;57.632;11.962;2022-11-20T06:01:03;100787.59;;;19.87;38.57
13011;BME280;6786;57.632;11.962;2022-11-20T06:03:31;100783.25;;;19.86;38.77
13011;BME280;6786;57.632;11.962;2022-11-20T06:05:59;100784.09;;;19.86;38.69
13011;BME280;6786;57.632;11.962;2022-11-20T06:08:27;100780.41;;;19.87;38.87
13011;BME280;6786;57.632;11.962;2022-11-20T06:10:55;100778.00;;;19.84;38.77
13011;BME280;6786;57.632;11.962;2022-11-20T06:13:24;100773.38;;;19.86;38.68
13011;BME280;6786;57.632;11.962;2022-11-20T06:15:54;100768.97;;;19.85;38.65
13011;BME280;6786;57.632;11.962;2022-11-20T06:18:22;100763.47;;;19.87;38.86
13011;BME280;6786;57.632;11.962;2022-11-20T06:21:00;100762.63;;;19.86;38.67
13011;BME280;6786;57.632;11.962;2022-11-20T06:23:30;100761.63;;;19.87;38.64
13011;BME280;6786;57.632;11.962;2022-11-20T06:26:01;100761.63;;;19.87;38.67
13011;BME280;6786;57.632;11.962;2022-11-20T06:28:30;100757.97;;;19.88;38.76
13011;BME280;6786;57.632;11.962;2022-11-20T06:31:00;100765.19;;;19.88;38.67
13011;BME280;6786;57.632;11.962;2022-11-20T06:33:28;100751.91;;;19.86;38.80
13011;BME280;6786;57.632;11.962;2022-11-20T06:35:57;100762.63;;;19.86;38.73
13011;BME280;6786;57.632;11.962;2022-11-20T06:38:29;100754.59;;;19.86;38.82
13011;BME280;6786;57.632;11.962;2022-11-20T06:40:57;100757.28;;;19.86;38.73
13011;BME280;6786;57.632;11.962;2022-11-20T06:43:28;100751.91;;;19.86;38.68
13011;BME280;6786;57.632;11.962;2022-11-20T06:45:57;100751.91;;;19.86;38.77
13011;BME280;6786;57.632;11.962;2022-11-20T06:48:28;100745.53;;;19.87;38.73
13011;BME280;6786;57.632;11.962;2022-11-20T06:50:57;100747.50;;;19.85;38.84
13011;BME280;6786;57.632;11.962;2022-11-20T06:53:25;100746.53;;;19.86;38.78
13011;BME280;6786;57.632;11.962;2022-11-20T06:55:55;100742.88;;;19.87;38.67
13011;BME280;6786;57.632;11.962;2022-11-20T06:58:26;100742.88;;;19.87;38.59
13011;BME280;6786;57.632;11.962;2022-11-20T07:00:57;100751.78;;;19.88;38.71
13011;BME280;6786;57.632;11.962;2022-11-20T07:03:27;100757.00;;;19.89;38.83
13011;BME280;6786;57.632;11.962;2022-11-20T07:05:55;100745.53;;;19.87;38.81
13011;BME280;6786;57.632;11.962;2022-11-20T07:08:24;100737.50;;;19.87;38.73
13011;BME280;6786;57.632;11.962;2022-11-20T07:10:52;100741.03;;;19.88;38.75
13011;BME280;6786;57.632;11.962;2022-11-20T07:13:20;100742.88;;;19.87;38.86
13011;BME280;6786;57.632;11.962;2022-11-20T07:15:48;100734.81;;;19.87;38.90
13011;BME280;6786;57.632;11.962;2022-11-20T07:18:16;100728.75;;;19.85;38.78
13011;BME280;6786;57.632;11.962;2022-11-20T07:20:45;100729.44;;;19.87;38.76
13011;BME280;6786;57.632;11.962;2022-11-20T07:23:13;100737.50;;;19.87;38.91
13011;BME280;6786;57.632;11.962;2022-11-20T07:25:41;100738.34;;;19.88;38.80
13011;BME280;6786;57.632;11.962;2022-11-20T07:28:09;100728.75;;;19.85;38.80
13011;BME280;6786;57.632;11.962;2022-11-20T07:30:38;100735.53;;;19.89;38.71
13011;BME280;6786;57.632;11.962;2022-11-20T07:33:06;100703.03;;;19.73;38.74
13011;BME280;6786;57.632;11.962;2022-11-20T07:35:34;100726.78;;;19.87;38.78
13011;BME280;6786;57.632;11.962;2022-11-20T07:38:03;100730.44;;;19.86;38.89
13011;BME280;6786;57.632;11.962;2022-11-20T07:40:31;100730.44;;;19.86;38.75
13011;BME280;6786;57.632;11.962;2022-11-20T07:42:59;100732.13;;;19.87;38.74
13011;BME280;6786;57.632;11.962;2022-11-20T07:45:27;100725.09;;;19.86;38.82
13011;BME280;6786;57.632;11.962;2022-11-20T07:47:55;100719.72;;;19.86;38.73
13011;BME280;6786;57.632;11.962;2022-11-20T07:50:23;100703.63;;;19.86;38.72
13011;BME280;6786;57.632;11.962;2022-11-20T07:52:51;100710.69;;;19.87;38.81
13011;BME280;6786;57.632;11.962;2022-11-20T07:55:21;100701.91;;;19.85;38.78
13011;BME280;6786;57.632;11.962;2022-11-20T07:57:54;100701.91;;;19.85;38.62
13011;BME280;6786;57.632;11.962;2022-11-20T08:00:22;100694.59;;;19.87;38.75
13011;BME280;6786;57.632;11.962;2022-11-20T08:02:51;100699.94;;;19.87;38.72
13011;BME280;6786;57.632;11.962;2022-11-20T08:05:19;100706.16;;;19.88;38.83
13011;BME280;6786;57.632;11.962;2022-11-20T08:07:47;100669.00;;;19.64;38.92
13011;BME280;6786;57.632;11.962;2022-11-20T08:10:17;100701.63;;;19.88;38.76
13011;BME280;6786;57.632;11.962;2022-11-20T08:12:48;100699.94;;;19.87;38.82
13011;BME280;6786;57.632;11.962;2022-11-20T08:15:34;100701.63;;;19.88;38.78
13011;BME280;6786;57.632;11.962;2022-11-20T08:18:04;100703.34;;;19.89;38.70
13011;BME280;6786;57.632;11.962;2022-11-20T08:20:52;100703.63;;;19.86;38.71
13011;BME280;6786;57.632;11.962;2022-11-20T08:23:22;100694.59;;;19.87;38.73
13011;BME280;6786;57.632;11.962;2022-11-20T08:25:50;100698.25;;;19.86;38.81
13011;BME280;6786;57.632;11.962;2022-11-20T08:28:20;100697.25;;;19.87;38.76
13011;BME280;6786;57.632;11.962;2022-11-20T08:30:48;100698.25;;;19.86;38.73
13011;BME280;6786;57.632;11.962;2022-11-20T08:33:17;100690.22;;;19.86;38.77
13011;BME280;6786;57.632;11.962;2022-11-20T08:35:45;100699.09;;;19.87;38.83
13011;BME280;6786;57.632;11.962;2022-11-20T08:38:13;100687.53;;;19.86;38.72
13011;BME280;6786;57.632;11.962;2022-11-20T08:40:41;100694.59;;;19.87;38.79
13011;BME280;6786;57.632;11.962;2022-11-20T08:43:32;100699.94;;;19.87;38.66
13011;BME280;6786;57.632;11.962;2022-11-20T08:46:00;100695.44;;;19.88;38.80
13011;BME280;6786;57.632;11.962;2022-11-20T08:48:28;100689.22;;;19.87;38.77
13011;BME280;6786;57.632;11.962;2022-11-20T08:50:57;100693.59;;;19.88;38.77
13011;BME280;6786;57.632;11.962;2022-11-20T08:53:26;100686.69;;;19.86;38.75
13011;BME280;6786;57.632;11.962;2022-11-20T08:55:54;100696.28;;;19.88;38.70
13011;BME280;6786;57.632;11.962;2022-11-20T08:58:22;100692.63;;;19.89;38.71
13011;BME280;6786;57.632;11.962;2022-11-20T09:00:51;100686.53;;;19.87;38.74
13011;BME280;6786;57.632;11.962;2022-11-20T09:03:19;100691.75;;;19.89;38.77
13011;BME280;6786;57.632;11.962;2022-11-20T09:05:48;100687.25;;;19.89;38.78
13011;BME280;6786;57.632;11.962;2022-11-20T09:08:15;100686.41;;;19.89;38.88
13011;BME280;6786;57.632;11.962;2022-11-20T09:10:43;100680.19;;;19.88;38.66
13011;BME280;6786;57.632;11.962;2022-11-20T09:13:11;100684.56;;;19.89;38.75
13011;BME280;6786;57.632;11.962;2022-11-20T09:15:39;100687.25;;;19.89;38.69
13011;BME280;6786;57.632;11.962;2022-11-20T09:18:09;100641.94;;;19.67;38.88
13011;BME280;6786;57.632;11.962;2022-11-20T09:20:37;100671.44;;;19.86;38.74
13011;BME280;6786;57.632;11.962;2022-11-20T09:23:05;100674.81;;;19.88;38.71
13011;BME280;6786;57.632;11.962;2022-11-20T09:25:33;100680.19;;;19.88;38.63
13011;BME280;6786;57.632;11.962;2022-11-20T09:28:01;100668.63;;;19.88;38.67
13011;BME280;6786;57.632;11.962;2022-11-20T09:30:29;100667.75;;;19.87;38.53
13011;BME280;6786;57.632;11.962;2022-11-20T09:32:57;100663.25;;;19.88;38.64
13011;BME280;6786;57.632;11.962;2022-11-20T09:35:26;100648.28;;;19.85;38.71
13011;BME280;6786;57.632;11.962;2022-11-20T09:37:54;100645.31;;;19.88;38.66
13011;BME280;6786;57.632;11.962;2022-11-20T09:40:24;100630.06;;;19.79;38.64
13011;BME280;6786;57.632;11.962;2022-11-20T09:42:56;100606.53;;;19.64;38.77
13011;BME280;6786;57.632;11.962;2022-11-20T09:45:39;100643.47;;;19.89;38.44
13011;BME280;6786;57.632;11.962;2022-11-20T09:48:25;100642.63;;;19.88;38.62
13011;BME280;6786;57.632;11.962;2022-11-20T09:51:06;100637.25;;;19.88;38.49
13011;BME280;6786;57.632;11.962;2022-11-20T09:53:48;100630.22;;;19.87;38.55
13011;BME280;6786;57.632;11.962;2022-11-20T09:56:21;100623.16;;;19.86;38.63
13011;BME280;6786;57.632;11.962;2022-11-20T09:58:51;100630.22;;;19.87;38.72
13011;BME280;6786;57.632;11.962;2022-11-20T10:01:21;100632.91;;;19.87;38.62
13011;BME280;6786;57.632;11.962;2022-11-20T10:03:55;100626.53;;;19.88;38.71
13011;BME280;6786;57.632;11.962;2022-11-20T10:06:30;100625.72;;;19.88;38.38
13011;BME280;6786;57.632;11.962;2022-11-20T10:09:06;100623.84;;;19.88;38.53
13011;BME280;6786;57.632;11.962;2022-11-20T10:11:48;100619.47;;;19.87;38.53
13011;BME280;6786;57.632;11.962;2022-11-20T10:14:26;100621.16;;;19.88;38.55
13011;BME280;6786;57.632;11.962;2022-11-20T10:17:03;100616.81;;;19.87;38.49
13011;BME280;6786;57.632;11.962;2022-11-20T10:19:45;100615.81;;;19.88;38.39
13011;BME280;6786;57.632;11.962;2022-11-20T10:22:25;100612.44;;;19.86;38.57
13011;BME280;6786;57.632;11.962;2022-11-20T10:25:04;100609.75;;;19.86;38.52
13011;BME280;6786;57.632;11.962;2022-11-20T10:30:36;100601.72;;;19.86;38.63
13011;BME280;6786;57.632;11.962;2022-11-20T10:33:13;100585.63;;;19.86;38.51
13011;BME280;6786;57.632;11.962;2022-11-20T10:35:48;100590.13;;;19.86;38.62
13011;BME280;6786;57.632;11.962;2022-11-20T10:38:23;100580.25;;;19.86;38.64
13011;BME280;6786;57.632;11.962;2022-11-20T10:40:56;100579.25;;;19.87;38.61
13011;BME280;6786;57.632;11.962;2022-11-20T10:43:46;100579.25;;;19.87;38.49
13011;BME280;6786;57.632;11.962;2022-11-20T10:46:17;100562.72;;;19.82;38.73
13011;BME280;6786;57.632;11.962;2022-11-20T10:48:47;100572.06;;;19.88;38.61
13011;BME280;6786;57.632;11.962;2022-11-20T10:51:25;100567.53;;;19.88;38.41
13011;BME280;6786;57.632;11.962;2022-11-20T10:54:10;100558.50;;;19.89;38.25
13011;BME280;6786;57.632;11.962;2022-11-20T10:56:41;100549.75;;;19.87;38.56
13011;BME280;6786;57.632;11.962;2022-11-20T10:59:31;100546.91;;;19.89;38.20
13011;BME280;6786;57.632;11.962;2022-11-20T11:02:14;100544.25;;;19.89;38.35
13011;BME280;6786;57.632;11.962;2022-11-20T11:04:44;100542.56;;;19.88;38.56
13011;BME280;6786;57.632;11.962;2022-11-20T11:07:16;100522.13;;;19.77;38.23
13011;BME280;6786;57.632;11.962;2022-11-20T11:09:49;100542.41;;;19.89;38.60
13011;BME280;6786;57.632;11.962;2022-11-20T11:12:18;100542.41;;;19.89;38.50
13011;BME280;6786;57.632;11.962;2022-11-20T11:14:48;100488.41;;;19.65;38.64
13011;BME280;6786;57.632;11.962;2022-11-20T11:17:26;100523.63;;;19.89;38.39
13011;BME280;6786;57.632;11.962;2022-11-20T11:20:03;100522.94;;;19.87;38.54
13011;BME280;6786;57.632;11.962;2022-11-20T11:22:33;100519.25;;;19.88;38.58
13011;BME280;6786;57.632;11.962;2022-11-20T11:25:03;100519.25;;;19.88;38.67
13011;BME280;6786;57.632;11.962;2022-11-20T11:27:31;100513.88;;;19.88;38.46
13011;BME280;6786;57.632;11.962;2022-11-20T11:30:13;100511.19;;;19.88;38.27
13011;BME280;6786;57.632;11.962;2022-11-20T11:32:41;100507.69;;;19.88;38.62
13011;BME280;6786;57.632;11.962;2022-11-20T11:35:21;100513.88;;;19.88;38.14
13011;BME280;6786;57.632;11.962;2022-11-20T11:37:50;100506.84;;;19.87;38.59
13011;BME280;6786;57.632;11.962;2022-11-20T11:40:22;100506.53;;;19.90;38.60
13011;BME280;6786;57.632;11.962;2022-11-20T11:42:57;100492.44;;;19.88;38.56
13011;BME280;6786;57.632;11.962;2022-11-20T11:45:26;100500.31;;;19.90;38.57
13011;BME280;6786;57.632;11.962;2022-11-20T11:47:56;100488.47;;;19.92;38.55
13011;BME280;6786;57.632;11.962;2022-11-20T11:50:26;100491.16;;;19.92;38.58
13011;BME280;6786;57.632;11.962;2022-11-20T11:52:59;100446.91;;;19.69;38.65
13011;BME280;6786;57.632;11.962;2022-11-20T11:55:36;100473.66;;;19.88;38.53
13011;BME280;6786;57.632;11.962;2022-11-20T11:58:11;100477.34;;;19.87;38.51
13011;BME280;6786;57.632;11.962;2022-11-20T12:00:51;100470.16;;;19.88;38.38
13011;BME280;6786;57.632;11.962;2022-11-20T12:03:27;100469.00;;;19.90;38.50
13011;BME280;6786;57.632;11.962;2022-11-20T12:05:59;100466.31;;;19.90;38.51
13011;BME280;6786;57.632;11.962;2022-11-20T12:08:32;100465.31;;;19.91;38.52
13011;BME280;6786;57.632;11.962;2022-11-20T12:11:12;100457.25;;;19.91;38.37
13011;BME280;6786;57.632;11.962;2022-11-20T12:13:49;100446.53;;;19.91;38.65
13011;BME280;6786;57.632;11.962;2022-11-20T12:16:20;100450.06;;;19.92;38.58
13011;BME280;6786;57.632;11.962;2022-11-20T12:18:50;100442.19;;;19.90;38.67
13011;BME280;6786;57.632;11.962;2022-11-20T12:21:20;100441.88;;;19.93;38.48
13011;BME280;6786;57.632;11.962;2022-11-20T12:24:13;100443.56;;;19.94;38.34
13011;BME280;6786;57.632;11.962;2022-11-20T12:26:57;100439.91;;;19.95;38.53
13011;BME280;6786;57.632;11.962;2022-11-20T12:29:39;100433.84;;;19.93;38.55
13011;BME280;6786;57.632;11.962;2022-11-20T12:32:37;100426.66;;;19.94;38.40
13011;BME280;6786;57.632;11.962;2022-11-20T12:35:23;100422.09;;;19.94;38.54
13011;BME280;6786;57.632;11.962;2022-11-20T12:38:08;100429.19;;;19.95;38.65
13011;BME280;6786;57.632;11.962;2022-11-20T12:40:45;100418.44;;;19.95;38.58
13011;BME280;6786;57.632;11.962;2022-11-20T12:43:21;100418.44;;;19.95;38.63
13011;BME280;6786;57.632;11.962;2022-11-20T12:46:18;100416.72;;;19.94;38.48
13011;BME280;6786;57.632;11.962;2022-11-20T12:49:06;100411.38;;;19.94;38.49
13011;BME280;6786;57.632;11.962;2022-11-20T12:51:52;100422.97;;;19.95;38.63
13011;BME280;6786;57.632;11.962;2022-11-20T12:54:52;100411.38;;;19.94;38.63
13011;BME280;6786;57.632;11.962;2022-11-20T12:57:28;100411.38;;;19.94;38.65
13011;BME280;6786;57.632;11.962;2022-11-20T13:00:13;100407.72;;;19.95;38.64
13011;BME280;6786;57.632;11.962;2022-11-20T13:03:00;100398.81;;;19.95;38.50
13011;BME280;6786;57.632;11.962;2022-11-20T13:05:40;100398.25;;;19.91;38.76
13011;BME280;6786;57.632;11.962;2022-11-20T13:08:16;100391.63;;;19.95;38.69
13011;BME280;6786;57.632;11.962;2022-11-20T13:10:50;100399.53;;;19.97;38.80
13011;BME280;6786;57.632;11.962;2022-11-20T13:13:23;100397.53;;;19.99;38.77
13011;BME280;6786;57.632;11.962;2022-11-20T13:16:01;100389.63;;;19.97;38.78